sensor_id;sensor_type;location;lat;lon;timestamp;temperature;humidity
15556;DHT22;7879;48.660;9.116;2023-02-28T00:01:06;-1.80;99.90
15556;DHT22;7879;48.660;9.116;2023-02-28T00:03:33;-1.80;99.90
15556;DHT22;7879;48.660;9.116;2023-02-28T00:06:05;-1.80;99.90
15556;DHT22;7879;48.660;9.116;2023-02-28T00:08:32;-1.90;99.90
15556;DHT22;7879;48.660;9.116;2023-02-28T00:11:06;-1.90;99.90
15556;DHT22;7879;48.660;9.116;2023-02-28T00:13:35;-1.90;99.90
15556;DHT22;7879;48.660;9.116;2023-02-28T00:16:09;-1.90;99.90
15556;DHT22;7879;48.660;9.116;2023-02-28T00:18:37;-1.90;99.90
15556;DHT22;7879;48.660;9.116;2023-02-28T00:21:04;-1.90;99.90
15556;DHT22;7879;48.660;9.116;2023-02-28T00:23:32;-1.90;99.90
15556;DHT22;7879;48.660;9.116;2023-02-28T00:25:59;-2.00;99.90
15556;DHT22;7879;48.660;9.116;2023-02-28T00:28:26;-1.90;99.90
15556;DHT22;7879;48.660;9.116;2023-02-28T00:30:53;-2.00;99.90
15556;DHT22;7879;48.660;9.116;2023-02-28T00:33:20;-2.00;99.90
15556;DHT22;7879;48.660;9.116;2023-02-28T00:35:46;-2.10;99.90
15556;DHT22;7879;48.660;9.116;2023-02-28T00:38:15;-2.00;99.90
15556;DHT22;7879;48.660;9.116;2023-02-28T00:40:42;-2.00;99.90
15556;DHT22;7879;48.660;9.116;2023-02-28T00:43:09;-2.10;99.90
15556;DHT22;7879;48.660;9.116;2023-02-28T00:45:36;-2.10;99.90
15556;DHT22;7879;48.660;9.116;2023-02-28T00:48:03;-2.10;99.90
15556;DHT22;7879;48.660;9.116;2023-02-28T00:50:30;-2.10;99.90
15556;DHT22;7879;48.660;9.116;2023-02-28T00:52:57;-2.10;99.90
15556;DHT22;7879;48.660;9.116;2023-02-28T00:55:23;-2.20;99.90
15556;DHT22;7879;48.660;9.116;2023-02-28T00:57:50;-2.20;99.90
15556;DHT22;7879;48.660;9.116;2023-02-28T01:00:17;-2.20;99.90
15556;DHT22;7879;48.660;9.116;2023-02-28T01:02:44;-2.20;99.90
15556;DHT22;7879;48.660;9.116;2023-02-28T01:05:11;-2.20;99.90
15556;DHT22;7879;48.660;9.116;2023-02-28T01:07:38;-2.20;99.90
15556;DHT22;7879;48.660;9.116;2023-02-28T01:10:05;-2.30;99.90
15556;DHT22;7879;48.660;9.116;2023-02-28T01:12:32;-2.20;99.90
15556;DHT22;7879;48.660;9.116;2023-02-28T01:14:59;-2.30;99.90
15556;DHT22;7879;48.660;9.116;2023-02-28T01:17:25;-2.30;99.90
15556;DHT22;7879;48.660;9.116;2023-02-28T01:19:54;-2.30;99.90
15556;DHT22;7879;48.660;9.116;2023-02-28T01:22:22;-2.30;99.90
15556;DHT22;7879;48.660;9.116;2023-02-28T01:24:49;-2.40;99.90
15556;DHT22;7879;48.660;9.116;2023-02-28T01:27:15;-2.30;99.90
15556;DHT22;7879;48.660;9.116;2023-02-28T01:29:42;-2.40;99.90
15556;DHT22;7879;48.660;9.116;2023-02-28T01:32:09;-2.40;99.90
15556;DHT22;7879;48.660;9.116;2023-02-28T01:34:36;-2.40;99.90
15556;DHT22;7879;48.660;9.116;2023-02-28T01:37:03;-2.50;99.90
15556;DHT22;7879;48.660;9.116;2023-02-28T01:39:30;-2.40;99.90
15556;DHT22;7879;48.660;9.116;2023-02-28T01:41:57;-2.50;99.90
15556;DHT22;7879;48.660;9.116;2023-02-28T01:44:55;-2.50;99.90
15556;DHT22;7879;48.660;9.116;2023-02-28T01:47:25;-2.50;99.90
15556;DHT22;7879;48.660;9.116;2023-02-28T01:49:53;-2.50;99.90
15556;DHT22;7879;48.660;9.116;2023-02-28T01:52:21;-2.50;99.90
15556;DHT22;7879;48.660;9.116;2023-02-28T01:54:54;-2.60;99.90
15556;DHT22;7879;48.660;9.116;2023-02-28T01:57:25;-2.60;99.90
15556;DHT22;7879;48.660;9.116;2023-02-28T01:59:58;-2.50;99.90
15556;DHT22;7879;48.660;9.116;2023-02-28T02:02:27;-2.60;99.90
15556;DHT22;7879;48.660;9.116;2023-02-28T02:05:03;-2.50;99.90
15556;DHT22;7879;48.660;9.116;2023-02-28T02:07:33;-2.60;99.90
15556;DHT22;7879;48.660;9.116;2023-02-28T02:10:10;-2.50;99.90
15556;DHT22;7879;48.660;9.116;2023-02-28T02:18:14;-2.60;99.90
15556;DHT22;7879;48.660;9.116;2023-02-28T02:21:10;-2.60;99.90
15556;DHT22;7879;48.660;9.116;2023-02-28T02:38:41;-2.60;99.90
15556;DHT22;7879;48.660;9.116;2023-02-28T02:41:18;-2.60;99.90
15556;DHT22;7879;48.660;9.116;2023-02-28T02:44:21;-2.60;99.90
15556;DHT22;7879;48.660;9.116;2023-02-28T02:46:42;-2.60;99.90
15556;DHT22;7879;48.660;9.116;2023-02-28T02:49:21;-2.60;99.90
15556;DHT22;7879;48.660;9.116;2023-02-28T02:51:49;-2.60;99.90
15556;DHT22;7879;48.660;9.116;2023-02-28T02:54:23;-2.60;99.90
15556;DHT22;7879;48.660;9.116;2023-02-28T02:56:58;-2.60;99.90
15556;DHT22;7879;48.660;9.116;2023-02-28T02:59:28;-2.60;99.90
15556;DHT22;7879;48.660;9.116;2023-02-28T03:02:03;-2.70;99.90
15556;DHT22;7879;48.660;9.116;2023-02-28T03:04:34;-2.60;99.90
15556;DHT22;7879;48.660;9.116;2023-02-28T03:07:03;-2.60;99.90
15556;DHT22;7879;48.660;9.116;2023-02-28T03:09:33;-2.60;99.90
15556;DHT22;7879;48.660;9.116;2023-02-28T03:12:00;-2.60;99.90
15556;DHT22;7879;48.660;9.116;2023-02-28T03:17:40;-2.60;99.90
15556;DHT22;7879;48.660;9.116;2023-02-28T03:26:19;-2.60;99.90
15556;DHT22;7879;48.660;9.116;2023-02-28T03:29:05;-2.60;99.90
15556;DHT22;7879;48.660;9.116;2023-02-28T03:31:40;-2.60;99.90
15556;DHT22;7879;48.660;9.116;2023-02-28T03:34:17;-2.60;99.90
15556;DHT22;7879;48.660;9.116;2023-02-28T03:36:49;-2.60;99.90
15556;DHT22;7879;48.660;9.116;2023-02-28T03:39:27;-2.60;99.90
15556;DHT22;7879;48.660;9.116;2023-02-28T03:42:01;-2.60;99.90
15556;DHT22;7879;48.660;9.116;2023-02-28T03:44:35;-2.60;99.90
15556;DHT22;7879;48.660;9.116;2023-02-28T03:47:16;-2.60;99.90
15556;DHT22;7879;48.660;9.116;2023-02-28T03:49:55;-2.60;99.90
15556;DHT22;7879;48.660;9.116;2023-02-28T03:52:27;-2.60;99.90
15556;DHT22;7879;48.660;9.116;2023-02-28T03:55:00;-2.60;99.90
15556;DHT22;7879;48.660;9.116;2023-02-28T04:00:20;-2.60;99.90
15556;DHT22;7879;48.660;9.116;2023-02-28T04:02:48;-2.60;99.90
15556;DHT22;7879;48.660;9.116;2023-02-28T04:05:22;-2.60;99.90
15556;DHT22;7879;48.660;9.116;2023-02-28T04:07:49;-2.50;99.90
15556;DHT22;7879;48.660;9.116;2023-02-28T04:10:17;-2.60;99.90
15556;DHT22;7879;48.660;9.116;2023-02-28T04:12:44;-2.60;99.90
15556;DHT22;7879;48.660;9.116;2023-02-28T04:15:10;-2.50;99.90
15556;DHT22;7879;48.660;9.116;2023-02-28T04:17:37;-2.60;99.90
15556;DHT22;7879;48.660;9.116;2023-02-28T04:20:05;-2.50;99.90
15556;DHT22;7879;48.660;9.116;2023-02-28T04:22:36;-2.50;99.90
15556;DHT22;7879;48.660;9.116;2023-02-28T04:25:04;-2.50;99.90
15556;DHT22;7879;48.660;9.116;2023-02-28T04:27:32;-2.60;99.90
15556;DHT22;7879;48.660;9.116;2023-02-28T04:29:59;-2.50;99.90
15556;DHT22;7879;48.660;9.116;2023-02-28T04:32:25;-2.50;99.90
15556;DHT22;7879;48.660;9.116;2023-02-28T04:34:52;-2.50;99.90
15556;DHT22;7879;48.660;9.116;2023-02-28T04:37:20;-2.50;99.90
15556;DHT22;7879;48.660;9.116;2023-02-28T04:39:46;-2.50;99.90
15556;DHT22;7879;48.660;9.116;2023-02-28T04:42:13;-2.50;99.90
15556;DHT22;7879;48.660;9.116;2023-02-28T04:44:40;-2.50;99.90
15556;DHT22;7879;48.660;9.116;2023-02-28T04:47:07;-2.50;99.90
15556;DHT22;7879;48.660;9.116;2023-02-28T04:49:35;-2.40;99.90
15556;DHT22;7879;48.660;9.116;2023-02-28T04:52:01;-2.50;99.90
15556;DHT22;7879;48.660;9.116;2023-02-28T04:54:28;-2.40;99.90
15556;DHT22;7879;48.660;9.116;2023-02-28T04:56:56;-2.40;99.90
15556;DHT22;7879;48.660;9.116;2023-02-28T04:59:22;-2.50;99.90
15556;DHT22;7879;48.660;9.116;2023-02-28T05:01:49;-2.50;99.90
15556;DHT22;7879;48.660;9.116;2023-02-28T05:04:16;-2.40;99.90
15556;DHT22;7879;48.660;9.116;2023-02-28T05:06:43;-2.40;99.90
15556;DHT22;7879;48.660;9.116;2023-02-28T05:09:11;-2.40;99.90
15556;DHT22;7879;48.660;9.116;2023-02-28T05:11:40;-2.40;99.90
15556;DHT22;7879;48.660;9.116;2023-02-28T05:14:13;-2.40;99.90
15556;DHT22;7879;48.660;9.116;2023-02-28T05:16:40;-2.40;99.90
15556;DHT22;7879;48.660;9.116;2023-02-28T05:19:07;-2.40;99.90
15556;DHT22;7879;48.660;9.116;2023-02-28T05:21:35;-2.40;99.90
15556;DHT22;7879;48.660;9.116;2023-02-28T05:24:06;-2.40;99.90
15556;DHT22;7879;48.660;9.116;2023-02-28T05:26:41;-2.40;99.90
15556;DHT22;7879;48.660;9.116;2023-02-28T05:29:08;-2.40;99.90
15556;DHT22;7879;48.660;9.116;2023-02-28T05:31:36;-2.40;99.90
15556;DHT22;7879;48.660;9.116;2023-02-28T05:34:03;-2.40;99.90
15556;DHT22;7879;48.660;9.116;2023-02-28T05:36:33;-2.40;99.90
15556;DHT22;7879;48.660;9.116;2023-02-28T05:39:00;-2.40;99.90
15556;DHT22;7879;48.660;9.116;2023-02-28T05:41:26;-2.40;99.90
15556;DHT22;7879;48.660;9.116;2023-02-28T05:43:54;-2.40;99.90
15556;DHT22;7879;48.660;9.116;2023-02-28T05:46:21;-2.40;99.90
15556;DHT22;7879;48.660;9.116;2023-02-28T05:48:48;-2.40;99.90
15556;DHT22;7879;48.660;9.116;2023-02-28T05:51:15;-2.40;99.90
15556;DHT22;7879;48.660;9.116;2023-02-28T05:53:42;-2.40;99.90
15556;DHT22;7879;48.660;9.116;2023-02-28T05:56:09;-2.40;99.90
15556;DHT22;7879;48.660;9.116;2023-02-28T05:58:36;-2.40;99.90
15556;DHT22;7879;48.660;9.116;2023-02-28T06:01:30;-2.40;99.90
15556;DHT22;7879;48.660;9.116;2023-02-28T06:04:02;-2.40;99.90
15556;DHT22;7879;48.660;9.116;2023-02-28T06:06:30;-2.40;99.90
15556;DHT22;7879;48.660;9.116;2023-02-28T06:08:57;-2.40;99.90
15556;DHT22;7879;48.660;9.116;2023-02-28T06:11:24;-2.40;99.90
15556;DHT22;7879;48.660;9.116;2023-02-28T06:13:57;-2.40;99.90
15556;DHT22;7879;48.660;9.116;2023-02-28T06:16:26;-2.40;99.90
15556;DHT22;7879;48.660;9.116;2023-02-28T06:18:54;-2.40;99.90
15556;DHT22;7879;48.660;9.116;2023-02-28T06:21:22;-2.40;99.90
15556;DHT22;7879;48.660;9.116;2023-02-28T06:23:49;-2.40;99.90
15556;DHT22;7879;48.660;9.116;2023-02-28T06:26:17;-2.40;99.90
15556;DHT22;7879;48.660;9.116;2023-02-28T06:28:44;-2.40;99.90
15556;DHT22;7879;48.660;9.116;2023-02-28T06:31:14;-2.40;99.90
15556;DHT22;7879;48.660;9.116;2023-02-28T06:33:44;-2.30;99.90
15556;DHT22;7879;48.660;9.116;2023-02-28T06:36:12;-2.30;99.90
15556;DHT22;7879;48.660;9.116;2023-02-28T06:38:39;-2.30;99.90
15556;DHT22;7879;48.660;9.116;2023-02-28T06:41:08;-2.30;99.90
15556;DHT22;7879;48.660;9.116;2023-02-28T06:43:39;-2.30;99.90
15556;DHT22;7879;48.660;9.116;2023-02-28T06:46:08;-2.30;99.90
15556;DHT22;7879;48.660;9.116;2023-02-28T06:48:37;-2.30;99.90
15556;DHT22;7879;48.660;9.116;2023-02-28T06:51:05;-2.20;99.90
15556;DHT22;7879;48.660;9.116;2023-02-28T06:53:33;-2.30;99.90
15556;DHT22;7879;48.660;9.116;2023-02-28T06:56:03;-2.30;99.90
15556;DHT22;7879;48.660;9.116;2023-02-28T06:58:30;-2.20;99.90
15556;DHT22;7879;48.660;9.116;2023-02-28T07:00:57;-2.20;99.90
15556;DHT22;7879;48.660;9.116;2023-02-28T07:03:24;-2.20;99.90
15556;DHT22;7879;48.660;9.116;2023-02-28T07:05:50;-2.20;99.90
15556;DHT22;7879;48.660;9.116;2023-02-28T07:08:17;-2.20;99.90
15556;DHT22;7879;48.660;9.116;2023-02-28T07:10:44;-2.20;99.90
15556;DHT22;7879;48.660;9.116;2023-02-28T07:13:12;-2.20;99.90
15556;DHT22;7879;48.660;9.116;2023-02-28T07:15:39;-2.20;99.90
15556;DHT22;7879;48.660;9.116;2023-02-28T07:18:09;-2.10;99.90
15556;DHT22;7879;48.660;9.116;2023-02-28T07:20:36;-2.10;99.90
15556;DHT22;7879;48.660;9.116;2023-02-28T07:23:03;-2.10;99.90
15556;DHT22;7879;48.660;9.116;2023-02-28T07:25:29;-2.10;99.90
15556;DHT22;7879;48.660;9.116;2023-02-28T07:27:57;-2.10;99.90
15556;DHT22;7879;48.660;9.116;2023-02-28T07:30:25;-2.10;99.90
15556;DHT22;7879;48.660;9.116;2023-02-28T07:32:52;-2.10;99.90
15556;DHT22;7879;48.660;9.116;2023-02-28T07:35:21;-2.10;99.90
15556;DHT22;7879;48.660;9.116;2023-02-28T07:37:48;-2.00;99.90
15556;DHT22;7879;48.660;9.116;2023-02-28T07:40:15;-2.00;99.90
15556;DHT22;7879;48.660;9.116;2023-02-28T07:42:42;-2.00;99.90
15556;DHT22;7879;48.660;9.116;2023-02-28T07:45:09;-2.00;99.90
15556;DHT22;7879;48.660;9.116;2023-02-28T07:47:38;-1.90;99.90
15556;DHT22;7879;48.660;9.116;2023-02-28T07:50:11;-1.90;99.90
15556;DHT22;7879;48.660;9.116;2023-02-28T07:52:42;-1.90;99.90
15556;DHT22;7879;48.660;9.116;2023-02-28T07:55:09;-1.90;99.90
15556;DHT22;7879;48.660;9.116;2023-02-28T07:57:36;-1.90;99.90
15556;DHT22;7879;48.660;9.116;2023-02-28T08:00:04;-1.90;99.90
15556;DHT22;7879;48.660;9.116;2023-02-28T08:02:32;-1.90;99.90
15556;DHT22;7879;48.660;9.116;2023-02-28T08:04:59;-1.90;99.90
15556;DHT22;7879;48.660;9.116;2023-02-28T08:07:27;-1.80;99.90
15556;DHT22;7879;48.660;9.116;2023-02-28T08:09:53;-1.90;99.90
15556;DHT22;7879;48.660;9.116;2023-02-28T08:12:20;-1.80;99.90
15556;DHT22;7879;48.660;9.116;2023-02-28T08:14:47;-1.80;99.90
15556;DHT22;7879;48.660;9.116;2023-02-28T08:17:14;-1.80;99.90
15556;DHT22;7879;48.660;9.116;2023-02-28T08:19:40;-1.80;99.90
15556;DHT22;7879;48.660;9.116;2023-02-28T08:22:07;-1.80;99.90
15556;DHT22;7879;48.660;9.116;2023-02-28T08:24:34;-1.80;99.90
15556;DHT22;7879;48.660;9.116;2023-02-28T08:27:01;-1.80;99.90
15556;DHT22;7879;48.660;9.116;2023-02-28T08:29:28;-1.70;99.90
15556;DHT22;7879;48.660;9.116;2023-02-28T08:31:56;-1.80;99.90
15556;DHT22;7879;48.660;9.116;2023-02-28T08:34:23;-1.80;99.90
15556;DHT22;7879;48.660;9.116;2023-02-28T08:36:50;-1.60;99.90
15556;DHT22;7879;48.660;9.116;2023-02-28T08:39:17;-1.70;99.90
15556;DHT22;7879;48.660;9.116;2023-02-28T08:41:44;-1.60;99.90
15556;DHT22;7879;48.660;9.116;2023-02-28T08:44:13;-1.60;99.90
15556;DHT22;7879;48.660;9.116;2023-02-28T08:46:40;-1.60;99.90
15556;DHT22;7879;48.660;9.116;2023-02-28T08:49:06;-1.60;99.90
15556;DHT22;7879;48.660;9.116;2023-02-28T08:51:33;-1.50;99.90
15556;DHT22;7879;48.660;9.116;2023-02-28T08:54:01;-1.60;99.90
15556;DHT22;7879;48.660;9.116;2023-02-28T08:56:28;-1.50;99.90
15556;DHT22;7879;48.660;9.116;2023-02-28T08:58:56;-1.50;99.90
15556;DHT22;7879;48.660;9.116;2023-02-28T09:01:26;-1.40;99.90
15556;DHT22;7879;48.660;9.116;2023-02-28T09:03:55;-1.50;99.90
15556;DHT22;7879;48.660;9.116;2023-02-28T09:06:27;-1.40;99.90
15556;DHT22;7879;48.660;9.116;2023-02-28T09:08:58;-1.40;99.90
15556;DHT22;7879;48.660;9.116;2023-02-28T09:11:26;-1.30;99.90
15556;DHT22;7879;48.660;9.116;2023-02-28T09:13:52;-1.30;99.90
15556;DHT22;7879;48.660;9.116;2023-02-28T09:16:19;-1.40;99.90
15556;DHT22;7879;48.660;9.116;2023-02-28T09:18:47;-1.40;99.90
15556;DHT22;7879;48.660;9.116;2023-02-28T09:21:16;-1.30;99.90
15556;DHT22;7879;48.660;9.116;2023-02-28T09:23:48;-1.30;99.90
15556;DHT22;7879;48.660;9.116;2023-02-28T09:26:26;-1.20;99.90
15556;DHT22;7879;48.660;9.116;2023-02-28T09:29:04;-1.30;99.90
15556;DHT22;7879;48.660;9.116;2023-02-28T09:31:31;-1.30;99.90
15556;DHT22;7879;48.660;9.116;2023-02-28T09:33:58;-1.30;99.90
15556;DHT22;7879;48.660;9.116;2023-02-28T09:36:26;-1.20;99.90
15556;DHT22;7879;48.660;9.116;2023-02-28T09:39:10;-1.20;99.90
15556;DHT22;7879;48.660;9.116;2023-02-28T09:41:43;-1.10;99.90
15556;DHT22;7879;48.660;9.116;2023-02-28T09:47:01;-1.10;99.90
15556;DHT22;7879;48.660;9.116;2023-02-28T09:49:42;-1.10;99.90
15556;DHT22;7879;48.660;9.116;2023-02-28T09:52:13;-1.10;99.90
15556;DHT22;7879;48.660;9.116;2023-02-28T09:54:43;-1.10;99.90
15556;DHT22;7879;48.660;9.116;2023-02-28T09:57:32;-1.10;99.90
15556;DHT22;7879;48.660;9.116;2023-02-28T10:05:20;-1.00;99.90
15556;DHT22;7879;48.660;9.116;2023-02-28T10:10:26;-0.90;99.90
15556;DHT22;7879;48.660;9.116;2023-02-28T10:12:56;-0.90;99.90
15556;DHT22;7879;48.660;9.116;2023-02-28T10:15:29;-0.80;99.90
15556;DHT22;7879;48.660;9.116;2023-02-28T10:18:00;-0.80;99.90
15556;DHT22;7879;48.660;9.116;2023-02-28T10:20:38;-0.80;99.90
15556;DHT22;7879;48.660;9.116;2023-02-28T10:23:26;-0.70;99.90
15556;DHT22;7879;48.660;9.116;2023-02-28T10:26:00;-0.60;99.90
15556;DHT22;7879;48.660;9.116;2023-02-28T10:28:29;-0.60;99.90
15556;DHT22;7879;48.660;9.116;2023-02-28T10:30:58;-0.60;99.90
15556;DHT22;7879;48.660;9.116;2023-02-28T10:33:28;-0.60;99.90
15556;DHT22;7879;48.660;9.116;2023-02-28T10:35:56;-0.60;99.90
15556;DHT22;7879;48.660;9.116;2023-02-28T10:38:32;-0.60;99.90
15556;DHT22;7879;48.660;9.116;2023-02-28T10:41:09;-0.60;99.90
15556;DHT22;7879;48.660;9.116;2023-02-28T10:43:39;-0.50;99.90
15556;DHT22;7879;48.660;9.116;2023-02-28T10:48:41;-0.40;99.90
15556;DHT22;7879;48.660;9.116;2023-02-28T10:51:14;-0.40;99.90
15556;DHT22;7879;48.660;9.116;2023-02-28T10:53:52;-0.40;99.90
15556;DHT22;7879;48.660;9.116;2023-02-28T10:56:28;-0.30;99.90
15556;DHT22;7879;48.660;9.116;2023-02-28T10:59:26;-0.20;99.90
15556;DHT22;7879;48.660;9.116;2023-02-28T11:01:53;-0.20;99.90
15556;DHT22;7879;48.660;9.116;2023-02-28T11:07:17;0.10;99.90
15556;DHT22;7879;48.660;9.116;2023-02-28T11:09:53;0.50;99.90
15556;DHT22;7879;48.660;9.116;2023-02-28T11:12:29;0.60;99.90
15556;DHT22;7879;48.660;9.116;2023-02-28T11:15:22;0.60;99.90
15556;DHT22;7879;48.660;9.116;2023-02-28T11:18:00;0.50;99.90
15556;DHT22;7879;48.660;9.116;2023-02-28T11:20:30;0.50;99.90
15556;DHT22;7879;48.660;9.116;2023-02-28T11:22:58;0.40;99.90
15556;DHT22;7879;48.660;9.116;2023-02-28T11:25:37;0.30;99.90
15556;DHT22;7879;48.660;9.116;2023-02-28T11:28:22;0.30;99.90
15556;DHT22;7879;48.660;9.116;2023-02-28T11:33:47;0.30;99.90
15556;DHT22;7879;48.660;9.116;2023-02-28T11:38:48;0.40;99.90
15556;DHT22;7879;48.660;9.116;2023-02-28T11:46:58;0.40;99.90
15556;DHT22;7879;48.660;9.116;2023-02-28T11:52:37;0.60;99.90
15556;DHT22;7879;48.660;9.116;2023-02-28T11:55:39;1.00;99.90
15556;DHT22;7879;48.660;9.116;2023-02-28T11:58:21;1.40;99.90
15556;DHT22;7879;48.660;9.116;2023-02-28T12:01:24;1.60;99.90
15556;DHT22;7879;48.660;9.116;2023-02-28T12:09:13;2.30;99.90
15556;DHT22;7879;48.660;9.116;2023-02-28T12:14:59;1.90;99.90
15556;DHT22;7879;48.660;9.116;2023-02-28T12:23:27;1.90;99.90
15556;DHT22;7879;48.660;9.116;2023-02-28T12:28:57;1.80;99.90
15556;DHT22;7879;48.660;9.116;2023-02-28T12:31:38;1.80;99.90
15556;DHT22;7879;48.660;9.116;2023-02-28T12:34:13;1.90;99.90
15556;DHT22;7879;48.660;9.116;2023-02-28T12:36:44;2.10;99.90
15556;DHT22;7879;48.660;9.116;2023-02-28T12:39:32;2.10;99.90
15556;DHT22;7879;48.660;9.116;2023-02-28T12:42:39;2.00;99.90
15556;DHT22;7879;48.660;9.116;2023-02-28T12:45:10;2.10;99.90
15556;DHT22;7879;48.660;9.116;2023-02-28T12:47:39;2.10;99.90
15556;DHT22;7879;48.660;9.116;2023-02-28T12:50:09;2.20;99.90
15556;DHT22;7879;48.660;9.116;2023-02-28T12:58:17;2.20;99.90
15556;DHT22;7879;48.660;9.116;2023-02-28T13:04:33;2.50;99.90
15556;DHT22;7879;48.660;9.116;2023-02-28T13:09:33;2.70;99.90
15556;DHT22;7879;48.660;9.116;2023-02-28T13:12:00;2.60;99.90
15556;DHT22;7879;48.660;9.116;2023-02-28T13:14:36;2.60;99.90
15556;DHT22;7879;48.660;9.116;2023-02-28T13:19:35;2.50;99.90
15556;DHT22;7879;48.660;9.116;2023-02-28T13:22:04;2.50;99.90
15556;DHT22;7879;48.660;9.116;2023-02-28T13:24:42;2.50;99.90
15556;DHT22;7879;48.660;9.116;2023-02-28T13:27:11;2.50;99.90
15556;DHT22;7879;48.660;9.116;2023-02-28T13:29:42;2.60;99.90
15556;DHT22;7879;48.660;9.116;2023-02-28T13:34:41;2.50;99.90
15556;DHT22;7879;48.660;9.116;2023-02-28T13:39:56;2.70;99.90
15556;DHT22;7879;48.660;9.116;2023-02-28T14:03:59;2.90;99.90
15556;DHT22;7879;48.660;9.116;2023-02-28T14:06:35;2.90;99.90
15556;DHT22;7879;48.660;9.116;2023-02-28T14:09:16;2.90;99.90
15556;DHT22;7879;48.660;9.116;2023-02-28T14:11:45;3.00;99.90
15556;DHT22;7879;48.660;9.116;2023-02-28T14:17:16;3.10;99.90
15556;DHT22;7879;48.660;9.116;2023-02-28T14:19:45;3.10;99.90
15556;DHT22;7879;48.660;9.116;2023-02-28T14:25:37;3.10;99.90
15556;DHT22;7879;48.660;9.116;2023-02-28T14:36:35;3.30;99.90
15556;DHT22;7879;48.660;9.116;2023-02-28T14:39:16;3.40;99.90
15556;DHT22;7879;48.660;9.116;2023-02-28T14:41:45;3.30;99.90
15556;DHT22;7879;48.660;9.116;2023-02-28T14:44:20;3.30;99.90
15556;DHT22;7879;48.660;9.116;2023-02-28T14:46:50;3.30;99.90
15556;DHT22;7879;48.660;9.116;2023-02-28T14:52:26;3.30;99.90
15556;DHT22;7879;48.660;9.116;2023-02-28T14:55:01;3.40;99.90
15556;DHT22;7879;48.660;9.116;2023-02-28T14:57:31;3.40;99.90
15556;DHT22;7879;48.660;9.116;2023-02-28T15:00:20;3.50;99.80
15556;DHT22;7879;48.660;9.116;2023-02-28T15:02:47;3.50;99.80
15556;DHT22;7879;48.660;9.116;2023-02-28T15:07:47;3.50;99.80
15556;DHT22;7879;48.660;9.116;2023-02-28T15:15:28;3.50;99.60
15556;DHT22;7879;48.660;9.116;2023-02-28T15:18:44;3.50;99.60
15556;DHT22;7879;48.660;9.116;2023-02-28T15:21:16;3.50;99.50
15556;DHT22;7879;48.660;9.116;2023-02-28T15:23:48;3.50;99.60
15556;DHT22;7879;48.660;9.116;2023-02-28T15:26:19;3.50;99.70
15556;DHT22;7879;48.660;9.116;2023-02-28T15:28:59;3.50;99.70
15556;DHT22;7879;48.660;9.116;2023-02-28T15:31:33;3.60;99.30
15556;DHT22;7879;48.660;9.116;2023-02-28T15:34:27;3.50;99.40
15556;DHT22;7879;48.660;9.116;2023-02-28T15:42:40;3.40;99.60
15556;DHT22;7879;48.660;9.116;2023-02-28T15:45:37;3.50;99.60
15556;DHT22;7879;48.660;9.116;2023-02-28T15:48:22;3.40;99.50
15556;DHT22;7879;48.660;9.116;2023-02-28T15:53:45;3.40;99.40
15556;DHT22;7879;48.660;9.116;2023-02-28T15:59:05;3.40;99.60
15556;DHT22;7879;48.660;9.116;2023-02-28T16:01:37;3.30;99.50
15556;DHT22;7879;48.660;9.116;2023-02-28T16:04:13;3.30;99.40
15556;DHT22;7879;48.660;9.116;2023-02-28T16:06:42;3.30;99.50
15556;DHT22;7879;48.660;9.116;2023-02-28T16:09:16;3.30;99.50
15556;DHT22;7879;48.660;9.116;2023-02-28T16:11:48;3.30;99.60
15556;DHT22;7879;48.660;9.116;2023-02-28T16:14:19;3.30;99.70
15556;DHT22;7879;48.660;9.116;2023-02-28T16:16:49;3.30;99.60
15556;DHT22;7879;48.660;9.116;2023-02-28T16:19:16;3.20;99.70
15556;DHT22;7879;48.660;9.116;2023-02-28T16:21:43;3.20;99.80
15556;DHT22;7879;48.660;9.116;2023-02-28T16:24:10;3.20;99.90
15556;DHT22;7879;48.660;9.116;2023-02-28T16:26:39;3.20;99.90
15556;DHT22;7879;48.660;9.116;2023-02-28T16:29:08;3.10;99.90
15556;DHT22;7879;48.660;9.116;2023-02-28T16:31:37;3.10;99.90
15556;DHT22;7879;48.660;9.116;2023-02-28T16:34:05;3.10;99.90
15556;DHT22;7879;48.660;9.116;2023-02-28T16:36:31;3.10;99.90
15556;DHT22;7879;48.660;9.116;2023-02-28T16:38:58;3.10;99.90
15556;DHT22;7879;48.660;9.116;2023-02-28T16:41:26;3.00;99.90
15556;DHT22;7879;48.660;9.116;2023-02-28T16:43:56;3.00;99.90
15556;DHT22;7879;48.660;9.116;2023-02-28T16:46:34;3.00;99.90
15556;DHT22;7879;48.660;9.116;2023-02-28T16:49:01;3.00;99.90
15556;DHT22;7879;48.660;9.116;2023-02-28T16:51:27;2.90;99.90
15556;DHT22;7879;48.660;9.116;2023-02-28T16:53:54;2.80;99.90
15556;DHT22;7879;48.660;9.116;2023-02-28T16:56:23;2.90;99.90
15556;DHT22;7879;48.660;9.116;2023-02-28T16:58:51;2.80;99.90
15556;DHT22;7879;48.660;9.116;2023-02-28T17:01:18;2.70;99.90
15556;DHT22;7879;48.660;9.116;2023-02-28T17:03:49;2.80;99.90
15556;DHT22;7879;48.660;9.116;2023-02-28T17:06:22;2.70;99.90
15556;DHT22;7879;48.660;9.116;2023-02-28T17:08:52;2.70;99.90
15556;DHT22;7879;48.660;9.116;2023-02-28T17:11:19;2.60;99.90
15556;DHT22;7879;48.660;9.116;2023-02-28T17:13:47;2.60;99.90
15556;DHT22;7879;48.660;9.116;2023-02-28T17:16:27;2.60;99.90
15556;DHT22;7879;48.660;9.116;2023-02-28T17:19:03;2.60;99.90
15556;DHT22;7879;48.660;9.116;2023-02-28T17:21:30;2.50;99.90
15556;DHT22;7879;48.660;9.116;2023-02-28T17:23:57;2.50;99.90
15556;DHT22;7879;48.660;9.116;2023-02-28T17:26:25;2.50;99.90
15556;DHT22;7879;48.660;9.116;2023-02-28T17:28:53;2.50;99.90
15556;DHT22;7879;48.660;9.116;2023-02-28T17:31:26;2.40;99.90
15556;DHT22;7879;48.660;9.116;2023-02-28T17:33:54;2.40;99.90
15556;DHT22;7879;48.660;9.116;2023-02-28T17:36:26;2.40;99.90
15556;DHT22;7879;48.660;9.116;2023-02-28T17:41:27;2.30;99.90
15556;DHT22;7879;48.660;9.116;2023-02-28T17:43:59;2.20;99.90
15556;DHT22;7879;48.660;9.116;2023-02-28T17:46:27;2.30;99.90
15556;DHT22;7879;48.660;9.116;2023-02-28T17:48:55;2.30;99.90
15556;DHT22;7879;48.660;9.116;2023-02-28T17:51:24;2.20;99.90
15556;DHT22;7879;48.660;9.116;2023-02-28T17:53:51;2.10;99.90
15556;DHT22;7879;48.660;9.116;2023-02-28T17:56:25;2.20;99.90
15556;DHT22;7879;48.660;9.116;2023-02-28T17:58:54;2.10;99.90
15556;DHT22;7879;48.660;9.116;2023-02-28T18:01:22;2.10;99.90
15556;DHT22;7879;48.660;9.116;2023-02-28T18:03:54;2.00;99.90
15556;DHT22;7879;48.660;9.116;2023-02-28T18:06:36;2.00;99.90
15556;DHT22;7879;48.660;9.116;2023-02-28T18:09:22;2.00;99.90
15556;DHT22;7879;48.660;9.116;2023-02-28T18:11:50;2.00;99.90
15556;DHT22;7879;48.660;9.116;2023-02-28T18:14:19;2.00;99.90
15556;DHT22;7879;48.660;9.116;2023-02-28T18:16:46;1.90;99.90
15556;DHT22;7879;48.660;9.116;2023-02-28T18:19:14;1.90;99.90
15556;DHT22;7879;48.660;9.116;2023-02-28T18:21:48;1.90;99.90
15556;DHT22;7879;48.660;9.116;2023-02-28T18:24:17;1.90;99.90
15556;DHT22;7879;48.660;9.116;2023-02-28T18:26:48;1.80;99.90
15556;DHT22;7879;48.660;9.116;2023-02-28T18:29:21;1.80;99.90
15556;DHT22;7879;48.660;9.116;2023-02-28T18:31:48;1.80;99.90
15556;DHT22;7879;48.660;9.116;2023-02-28T18:34:20;1.80;99.90
15556;DHT22;7879;48.660;9.116;2023-02-28T18:36:48;1.70;99.90
15556;DHT22;7879;48.660;9.116;2023-02-28T18:39:17;1.70;99.90
15556;DHT22;7879;48.660;9.116;2023-02-28T18:41:44;1.80;99.90
15556;DHT22;7879;48.660;9.116;2023-02-28T18:44:13;1.70;99.90
15556;DHT22;7879;48.660;9.116;2023-02-28T18:46:49;1.60;99.90
15556;DHT22;7879;48.660;9.116;2023-02-28T18:49:17;1.60;99.90
15556;DHT22;7879;48.660;9.116;2023-02-28T18:51:46;1.60;99.90
15556;DHT22;7879;48.660;9.116;2023-02-28T18:54:15;1.60;99.90
15556;DHT22;7879;48.660;9.116;2023-02-28T18:59:13;1.50;99.90